Shinkomaru No.8 — JK5142 — position and weather

sailwx.info

Track history (hours):
 
Tides and Currents Weather Stations Pressure Air Temp Water Temp Dewpoint Dewpoint Depression Visibility Wind Speed Wind Dir Waves Ship Positions

Shinkomaru No.8

Last reported at 2014-Sep-27 09:20 UTC. Time now 2014-Oct-02 06:34 UTC.
Position N 35°14' E 139°46'.

Length 61 m; draft 4.4 m.

Type: Tanker. MMSI: 431400035.

Date/timePositionNaut miles runAvg speedWind from/ knotsBaromVisibWave heightAir tempDewpointWater temp
2014-Sep-27 09:20N 35°14' E 139°46'1012.3
2014-Sep-27 08:33N 35°23' E 139°42'1212.1
2014-Sep-27 07:32N 35°30' E 139°55'4 0.3
2014-Sep-26 16:33N 35°27' E 139°50'1110.6
2014-Sep-26 15:33N 35°18' E 139°45'  
2014-Sep-23 10:26N 34°04' E 135°01'2311.7
2014-Sep-23 08:30N 34°27' E 135°01'1010.7
2014-Sep-23 07:33N 34°37' E 135°01'  
2014-Sep-18 11:07N 34°38' E 134°51'1012.4
2014-Sep-18 10:18N 34°36' E 135°03'811.2
2014-Sep-18 09:33N 34°28' E 135°04'1311.5
2014-Sep-18 08:27N 34°15' E 135°03'3 3.9
2014-Sep-18 07:33N 34°14' E 135°07'0 0.0
2014-Sep-18 06:33N 34°14' E 135°07'0 0.0
2014-Sep-18 05:33N 34°14' E 135°07'0 0.0
2014-Sep-18 04:33N 34°14' E 135°07'0 0.0
2014-Sep-18 03:33N 34°14' E 135°07'0 0.0
2014-Sep-18 02:33N 34°14' E 135°07'0 0.0
2014-Sep-18 01:33N 34°14' E 135°07'0 0.0
2014-Sep-18 00:33N 34°14' E 135°07'0 0.0
2014-Sep-17 23:33N 34°14' E 135°07'0 0.0
2014-Sep-17 22:33N 34°14' E 135°07'2 1.9
2014-Sep-17 21:33N 34°14' E 135°05'10 7.5
2014-Sep-17 20:15N 34°12' E 134°53'  
Track history (hours):
 
Tides and Currents Weather Stations Pressure Air Temp Water Temp Dewpoint Dewpoint Depression Visibility Wind Speed Wind Dir Waves Ship Positions

Shinkomaru No.8

Last reported at 2014-Sep-27 09:20 UTC. Time now 2014-Oct-02 06:34 UTC.
Position N 35°14' E 139°46'.

Length 61 m; draft 4.4 m.

Type: Tanker. MMSI: 431400035.

Date/timePositionNaut miles runAvg speedWind from/ knotsBaromVisibWave heightAir tempDewpointWater temp
2014-Sep-27 09:20N 35°14' E 139°46'1012.3
2014-Sep-27 08:33N 35°23' E 139°42'1212.1
2014-Sep-27 07:32N 35°30' E 139°55'4 0.3
2014-Sep-26 16:33N 35°27' E 139°50'1110.6
2014-Sep-26 15:33N 35°18' E 139°45'  
2014-Sep-23 10:26N 34°04' E 135°01'2311.7
2014-Sep-23 08:30N 34°27' E 135°01'1010.7
2014-Sep-23 07:33N 34°37' E 135°01'  
2014-Sep-18 11:07N 34°38' E 134°51'1012.4
2014-Sep-18 10:18N 34°36' E 135°03'811.2
2014-Sep-18 09:33N 34°28' E 135°04'1311.5
2014-Sep-18 08:27N 34°15' E 135°03'3 3.9
2014-Sep-18 07:33N 34°14' E 135°07'0 0.0
2014-Sep-18 06:33N 34°14' E 135°07'0 0.0
2014-Sep-18 05:33N 34°14' E 135°07'0 0.0
2014-Sep-18 04:33N 34°14' E 135°07'0 0.0
2014-Sep-18 03:33N 34°14' E 135°07'0 0.0
2014-Sep-18 02:33N 34°14' E 135°07'0 0.0
2014-Sep-18 01:33N 34°14' E 135°07'0 0.0
2014-Sep-18 00:33N 34°14' E 135°07'0 0.0
2014-Sep-17 23:33N 34°14' E 135°07'0 0.0
2014-Sep-17 22:33N 34°14' E 135°07'2 1.9
2014-Sep-17 21:33N 34°14' E 135°05'10 7.5
2014-Sep-17 20:15N 34°12' E 134°53'  

Dump ship's entire track history